Time;durP1;ratioP1;P1;durP2;ratioP2;P2;SDS_P1;SDS_P2;PMS_P1;PMS_P2;Temp;Humidity;BMP_temperature;BMP_pressure;BME280_temperature;BME280_humidity;BME280_pressure;Samples;Min_cycle;Max_cycle;Signal;HPM_P1;HPM_P2
2022/06/09 00:01:22;;;;;;;12.55;7.90;;;18.60;99.90;;;;;;6186973;23;20157;-83
2022/06/09 00:03:54;;;;;;;12.80;8.65;;;18.50;99.90;;;;;;6186564;23;20247;-84
2022/06/09 00:06:22;;;;;;;11.35;8.23;;;18.60;99.90;;;;;;6187085;23;20148;-83
2022/06/09 00:08:50;;;;;;;11.15;8.00;;;18.50;99.90;;;;;;6160449;23;20184;-83
2022/06/09 00:11:21;;;;;;;11.45;7.63;;;18.50;99.90;;;;;;6186807;23;20488;-83
2022/06/09 00:13:47;;;;;;;10.98;7.07;;;18.50;99.90;;;;;;6186685;23;20140;-87
2022/06/09 00:16:14;;;;;;;13.52;8.55;;;18.40;99.90;;;;;;6160780;23;20153;-84
2022/06/09 00:18:41;;;;;;;22.17;8.18;;;18.50;99.90;;;;;;6186532;23;20163;-83
2022/06/09 00:21:07;;;;;;;11.75;7.93;;;18.40;99.90;;;;;;6160376;23;20175;-83
2022/06/09 00:23:33;;;;;;;12.55;7.15;;;18.40;99.90;;;;;;6186374;23;20176;-83
2022/06/09 00:25:59;;;;;;;10.63;7.38;;;18.30;99.90;;;;;;6186742;23;20231;-83
2022/06/09 00:28:25;;;;;;;11.52;7.95;;;18.30;99.90;;;;;;6186778;23;20160;-83
2022/06/09 00:30:51;;;;;;;10.45;7.13;;;18.30;99.90;;;;;;6186945;23;20161;-83
2022/06/09 00:33:17;;;;;;;12.45;8.35;;;18.20;99.90;;;;;;6187613;23;20176;-83
2022/06/09 00:35:43;;;;;;;10.88;7.63;;;;;;;;;;6160599;23;20478;-83
2022/06/09 00:38:08;;;;;;;11.73;7.75;;;18.20;99.90;;;;;;6160772;23;20211;-82
2022/06/09 00:40:34;;;;;;;12.02;7.47;;;18.20;99.90;;;;;;6188034;23;20157;-83
2022/06/09 00:43:02;;;;;;;10.90;7.45;;;18.10;99.90;;;;;;6187546;23;20156;-83
2022/06/09 00:45:39;;;;;;;10.75;7.22;;;18.10;99.90;;;;;;6187933;23;20152;-82
2022/06/09 00:48:21;;;;;;;13.25;7.38;;;18.10;99.90;;;;;;6187670;23;20182;-83
2022/06/09 00:50:52;;;;;;;11.00;7.68;;;18.00;99.90;;;;;;6190396;23;20156;-83
2022/06/09 00:53:22;;;;;;;12.23;7.50;;;18.00;99.90;;;;;;6190250;23;20195;-83
2022/06/09 00:55:48;;;;;;;11.60;8.20;;;18.00;99.90;;;;;;6190329;23;20158;-83
2022/06/09 00:58:17;;;;;;;11.25;7.85;;;18.00;99.90;;;;;;6186373;23;20153;-84
2022/06/09 01:00:48;;;;;;;8.95;6.70;;;17.40;99.90;;;;;;6186412;23;20153;-84
2022/06/09 01:03:17;;;;;;;11.77;8.00;;;17.90;99.90;;;;;;6185951;23;20191;-84
2022/06/09 01:05:44;;;;;;;11.63;7.50;;;17.90;99.90;;;;;;6186225;23;20153;-84
2022/06/09 01:08:11;;;;;;;12.45;7.95;;;17.80;99.90;;;;;;6186951;23;20308;-84
2022/06/09 01:10:37;;;;;;;10.20;7.55;;;17.80;99.90;;;;;;6203090;23;20222;-82
2022/06/09 01:13:04;;;;;;;10.90;7.45;;;17.80;99.90;;;;;;6203272;23;20154;-83
2022/06/09 01:15:55;;;;;;;12.32;7.82;;;17.90;99.90;;;;;;6202402;23;20156;-83
2022/06/09 01:18:49;;;;;;;11.60;7.20;;;17.80;99.90;;;;;;6202996;23;20148;-83
2022/06/09 01:21:30;;;;;;;13.02;7.60;;;17.70;99.90;;;;;;6189012;23;20155;-84
2022/06/09 01:24:19;;;;;;;14.05;7.97;;;17.70;99.90;;;;;;6186055;23;20183;-83
2022/06/09 01:27:03;;;;;;;11.15;7.32;;;17.70;99.90;;;;;;6143291;23;20157;-82
2022/06/09 01:29:44;;;;;;;12.65;8.77;;;17.80;99.90;;;;;;6206677;23;20133;-83
2022/06/09 01:32:30;;;;;;;14.02;8.40;;;17.80;99.90;;;;;;6205558;23;20140;-82
2022/06/09 01:35:20;;;;;;;14.52;7.53;;;17.70;99.90;;;;;;6200583;23;20136;-84
2022/06/09 01:37:53;;;;;;;12.40;8.55;;;17.70;99.90;;;;;;6185725;23;20152;-83
2022/06/09 01:40:20;;;;;;;19.45;9.07;;;17.70;99.90;;;;;;6159427;23;20499;-83
2022/06/09 01:42:49;;;;;;;11.70;7.68;;;17.70;99.90;;;;;;6186140;23;20152;-83
2022/06/09 01:45:22;;;;;;;12.43;9.02;;;17.70;99.90;;;;;;6159659;23;20206;-83
2022/06/09 01:48:07;;;;;;;10.73;7.75;;;17.70;99.90;;;;;;6186139;23;20478;-83
2022/06/09 01:50:57;;;;;;;11.80;7.93;;;17.70;99.90;;;;;;6186551;23;20162;-83
2022/06/09 01:53:34;;;;;;;10.00;7.35;;;17.60;99.90;;;;;;6160066;23;20485;-83
2022/06/09 01:56:25;;;;;;;10.52;7.50;;;17.60;99.90;;;;;;6186474;23;20223;-83
2022/06/09 01:59:03;;;;;;;10.85;7.47;;;17.60;99.90;;;;;;6185857;23;20514;-83
2022/06/09 02:01:37;;;;;;;12.02;7.45;;;17.60;99.90;;;;;;6185918;23;20506;-82
2022/06/09 02:04:06;;;;;;;10.02;6.90;;;17.60;99.90;;;;;;6185921;23;20199;-83
2022/06/09 02:06:34;;;;;;;11.63;7.72;;;17.60;99.90;;;;;;6185961;23;20195;-83
2022/06/09 02:09:00;;;;;;;12.20;7.97;;;17.60;99.90;;;;;;6186044;23;20156;-82
2022/06/09 02:11:28;;;;;;;14.13;8.35;;;17.50;99.90;;;;;;6180761;23;20208;-83
2022/06/09 02:13:56;;;;;;;11.70;7.80;;;17.50;99.90;;;;;;6185885;23;20231;-83
2022/06/09 02:16:23;;;;;;;10.65;6.93;;;17.50;99.90;;;;;;6186331;23;20153;-83
2022/06/09 02:18:52;;;;;;;9.95;7.20;;;17.50;99.90;;;;;;6187948;23;20171;-83
2022/06/09 02:21:24;;;;;;;11.95;7.88;;;17.50;99.90;;;;;;6188128;23;20153;-83
2022/06/09 02:23:50;;;;;;;11.30;7.72;;;17.50;99.90;;;;;;6187666;23;20180;-83
2022/06/09 02:26:16;;;;;;;12.48;7.93;;;17.60;99.90;;;;;;6186300;23;20164;-84
2022/06/09 02:28:42;;;;;;;9.57;6.68;;;17.60;99.90;;;;;;6187878;23;20579;-83
2022/06/09 02:31:09;;;;;;;10.77;7.05;;;17.60;99.90;;;;;;6186402;23;20156;-84
2022/06/09 02:33:35;;;;;;;11.82;7.75;;;17.60;99.90;;;;;;6187414;23;20164;-83
2022/06/09 02:36:00;;;;;;;10.40;7.45;;;17.60;99.90;;;;;;6163806;23;20591;-83
2022/06/09 02:38:26;;;;;;;10.95;7.63;;;17.60;99.90;;;;;;6189940;23;20279;-83
2022/06/09 02:40:56;;;;;;;11.52;7.80;;;17.60;99.90;;;;;;6164618;23;20243;-83
2022/06/09 02:43:23;;;;;;;11.25;7.45;;;17.70;99.90;;;;;;6188625;23;20612;-83
2022/06/09 02:45:50;;;;;;;11.48;7.22;;;17.70;99.90;;;;;;6209439;23;20159;-84
2022/06/09 02:48:17;;;;;;;11.57;7.18;;;18.00;99.90;;;;;;6214516;23;20149;-94
2022/06/09 02:50:46;;;;;;;12.63;8.38;;;17.70;99.90;;;;;;6215428;23;20152;-83
2022/06/09 02:53:11;;;;;;;13.68;8.88;;;17.70;99.90;;;;;;6214581;23;20132;-85
2022/06/09 02:55:37;;;;;;;9.40;6.65;;;17.70;99.90;;;;;;6214157;23;20144;-83
2022/06/09 02:58:03;;;;;;;11.57;7.93;;;17.70;99.90;;;;;;6188547;23;20184;-83
2022/06/09 03:00:29;;;;;;;11.43;7.65;;;;;;;;;;6187548;23;20168;-83
2022/06/09 03:03:00;;;;;;;11.93;7.53;;;17.90;99.90;;;;;;6187548;23;20600;-83
2022/06/09 03:05:28;;;;;;;11.07;8.43;;;17.90;99.90;;;;;;6187573;23;20246;-83
2022/06/09 03:07:54;;;;;;;12.43;7.57;;;17.90;99.90;;;;;;6187581;23;20179;-83
2022/06/09 03:10:20;;;;;;;12.85;7.68;;;18.00;99.90;;;;;;6186059;23;20153;-83
2022/06/09 03:12:46;;;;;;;12.07;8.00;;;18.00;99.90;;;;;;6185821;23;20275;-82
2022/06/09 03:15:14;;;;;;;11.23;7.35;;;18.10;99.90;;;;;;6187284;23;20180;-84
2022/06/09 03:17:39;;;;;;;12.02;7.28;;;18.10;99.90;;;;;;6187085;23;20157;-83
2022/06/09 03:20:08;;;;;;;11.18;7.63;;;18.10;99.90;;;;;;6187333;23;20236;-83
2022/06/09 03:22:33;;;;;;;9.88;6.78;;;18.10;99.90;;;;;;6185068;23;20157;-83
2022/06/09 03:25:00;;;;;;;11.93;7.53;;;18.00;99.90;;;;;;6187083;23;20619;-83
2022/06/09 03:27:26;;;;;;;10.10;6.95;;;18.10;99.90;;;;;;6187072;23;20215;-83
2022/06/09 03:29:51;;;;;;;11.45;6.78;;;18.10;99.90;;;;;;6187464;23;20573;-82
2022/06/09 03:32:17;;;;;;;10.70;7.78;;;18.10;99.90;;;;;;6185537;23;20160;-83
2022/06/09 03:34:43;;;;;;;9.35;7.00;;;18.10;99.90;;;;;;6186025;23;20239;-84
2022/06/09 03:37:09;;;;;;;11.35;7.05;;;;;;;;;;6186994;23;20471;-83
2022/06/09 03:39:34;;;;;;;11.88;7.63;;;18.10;99.90;;;;;;6186665;23;20176;-83
2022/06/09 03:42:00;;;;;;;11.18;7.65;;;;;;;;;;6187288;23;20463;-82
2022/06/09 03:44:26;;;;;;;12.73;7.68;;;18.20;99.90;;;;;;6187008;23;20181;-83
2022/06/09 03:46:52;;;;;;;17.67;7.88;;;18.20;99.90;;;;;;6160794;23;20163;-82
2022/06/09 03:49:18;;;;;;;13.43;7.63;;;;;;;;;;6186925;23;20157;-84
2022/06/09 03:51:43;;;;;;;11.70;7.75;;;18.30;99.90;;;;;;6186356;23;20157;-82
2022/06/09 03:54:09;;;;;;;10.98;7.45;;;18.30;99.90;;;;;;6185350;23;20157;-83
2022/06/09 03:56:34;;;;;;;11.90;7.55;;;18.30;99.90;;;;;;6186146;23;20157;-83
2022/06/09 03:59:00;;;;;;;10.90;7.03;;;18.40;99.90;;;;;;6186747;23;20153;-82
2022/06/09 04:01:26;;;;;;;11.57;7.13;;;18.50;99.90;;;;;;6186528;23;20523;-82
2022/06/09 04:03:52;;;;;;;12.05;7.15;;;18.50;99.90;;;;;;6186345;23;20627;-82
2022/06/09 04:06:23;;;;;;;13.30;8.27;;;18.50;99.90;;;;;;6186470;23;20235;-86
2022/06/09 04:08:50;;;;;;;11.40;7.47;;;18.50;99.90;;;;;;6185121;23;20160;-82
2022/06/09 04:11:17;;;;;;;12.85;7.93;;;18.50;99.90;;;;;;6186574;23;20157;-83
2022/06/09 04:13:43;;;;;;;11.68;7.88;;;18.50;99.90;;;;;;6184428;23;20216;-83
2022/06/09 04:16:27;;;;;;;11.80;7.82;;;18.50;99.90;;;;;;6185190;23;20160;-83
2022/06/09 04:18:53;;;;;;;11.63;7.22;;;18.50;99.90;;;;;;6186667;23;20136;-83
2022/06/09 04:21:21;;;;;;;13.27;8.20;;;18.50;99.90;;;;;;6184814;23;20244;-82
2022/06/09 04:23:47;;;;;;;12.07;7.63;;;18.60;99.90;;;;;;6184700;23;20240;-83
2022/06/09 04:26:16;;;;;;;9.27;7.35;;;18.70;99.90;;;;;;6186276;23;20280;-82
2022/06/09 04:28:42;;;;;;;11.45;7.57;;;18.70;99.90;;;;;;6186134;23;20687;-82
2022/06/09 04:31:09;;;;;;;12.48;8.38;;;18.80;99.90;;;;;;6186140;23;20651;-82
2022/06/09 04:33:34;;;;;;;10.68;7.72;;;18.90;99.90;;;;;;6185433;23;20239;-83
2022/06/09 04:36:00;;;;;;;11.25;7.60;;;19.00;99.90;;;;;;6185798;23;20191;-82
2022/06/09 04:38:26;;;;;;;10.07;7.40;;;19.00;99.90;;;;;;6185492;23;20235;-83
2022/06/09 04:40:51;;;;;;;12.20;8.40;;;19.10;99.90;;;;;;6186050;23;20159;-83
2022/06/09 04:43:17;;;;;;;10.82;7.35;;;19.10;99.90;;;;;;6186037;23;20507;-83
2022/06/09 04:45:42;;;;;;;17.30;8.25;;;19.10;99.90;;;;;;6185375;23;20907;-82
2022/06/09 04:48:10;;;;;;;12.55;7.47;;;19.10;99.90;;;;;;6184552;23;20208;-82
2022/06/09 04:50:36;;;;;;;12.13;7.97;;;19.10;99.90;;;;;;6185616;23;20164;-84
2022/06/09 04:53:02;;;;;;;11.68;7.47;;;19.10;99.90;;;;;;6186263;23;20157;-83
2022/06/09 04:55:27;;;;;;;12.18;7.55;;;19.10;99.90;;;;;;6186003;23;20152;-83
2022/06/09 04:57:53;;;;;;;10.02;7.78;;;19.20;99.90;;;;;;6184868;23;20232;-83
2022/06/09 05:00:19;;;;;;;11.63;7.88;;;19.20;99.90;;;;;;6184330;23;20157;-84
2022/06/09 05:02:45;;;;;;;11.75;7.72;;;19.30;99.90;;;;;;6184558;23;20148;-83
2022/06/09 05:05:22;;;;;;;10.40;7.72;;;19.40;99.90;;;;;;6182735;23;20216;-86
2022/06/09 05:07:47;;;;;;;13.70;7.68;;;19.40;99.90;;;;;;6185347;23;20153;-84
2022/06/09 05:10:13;;;;;;;11.50;8.27;;;19.40;99.90;;;;;;6184984;23;20187;-83
2022/06/09 05:12:39;;;;;;;15.52;8.80;;;19.50;99.90;;;;;;6182092;23;20287;-84
2022/06/09 05:15:06;;;;;;;11.90;8.38;;;19.50;99.90;;;;;;6183573;23;20196;-83
2022/06/09 05:17:31;;;;;;;10.35;7.60;;;19.60;99.90;;;;;;6182643;23;20149;-83
2022/06/09 05:19:57;;;;;;;11.98;8.27;;;19.80;99.90;;;;;;6182593;23;20171;-89
2022/06/09 05:22:23;;;;;;;12.35;7.80;;;19.90;99.90;;;;;;6184118;23;20157;-83
2022/06/09 05:24:48;;;;;;;12.30;7.82;;;20.20;99.90;;;;;;6182800;23;20554;-83
2022/06/09 05:27:14;;;;;;;11.38;7.65;;;20.40;99.90;;;;;;6181897;23;20184;-86
2022/06/09 05:29:41;;;;;;;12.05;7.90;;;20.60;99.90;;;;;;6182646;23;20208;-83
2022/06/09 05:32:08;;;;;;;12.77;8.32;;;20.80;99.90;;;;;;6184539;23;20156;-84
2022/06/09 05:34:34;;;;;;;10.73;7.60;;;20.90;99.90;;;;;;6179326;23;20640;-89
2022/06/09 05:37:00;;;;;;;10.35;7.57;;;21.00;99.90;;;;;;6178601;23;20192;-84
2022/06/09 05:45:12;;;;;;;10.50;7.32;;;21.40;99.90;;;;;;6093264;23;20844;-87
2022/06/09 05:47:38;;;;;;;10.38;7.40;;;21.50;99.90;;;;;;6165277;23;20167;-83
2022/06/09 05:50:05;;;;;;;14.18;6.90;;;21.60;99.90;;;;;;6182010;23;20165;-85
2022/06/09 05:52:31;;;;;;;9.85;7.07;;;21.80;99.90;;;;;;6185045;23;20160;-86
2022/06/09 05:54:57;;;;;;;8.65;6.63;;;21.90;99.90;;;;;;6182890;23;20156;-85
2022/06/09 05:57:24;;;;;;;18.05;6.45;;;22.00;99.90;;;;;;6183003;23;20160;-84
2022/06/09 05:59:51;;;;;;;10.75;6.72;;;22.10;99.90;;;;;;6182281;23;20738;-84
2022/06/09 06:02:19;;;;;;;8.02;5.93;;;22.00;99.90;;;;;;6181380;23;20156;-86
2022/06/09 06:04:44;;;;;;;11.82;7.05;;;22.00;99.90;;;;;;6185345;23;20314;-84
2022/06/09 06:07:10;;;;;;;9.07;6.78;;;22.00;99.90;;;;;;6185607;23;20188;-83
2022/06/09 06:09:36;;;;;;;10.40;6.70;;;22.00;99.90;;;;;;6185653;23;20577;-83
2022/06/09 06:12:03;;;;;;;11.07;6.93;;;22.20;99.90;;;;;;6184057;23;20201;-83
2022/06/09 06:14:30;;;;;;;9.05;5.93;;;22.30;99.90;;;;;;6183812;23;20244;-89
2022/06/09 06:16:55;;;;;;;8.07;6.07;;;22.50;99.90;;;;;;6184632;23;20232;-84
2022/06/09 06:19:22;;;;;;;8.70;6.03;;;22.40;99.90;;;;;;6134318;23;20199;-84
2022/06/09 06:21:48;;;;;;;8.65;6.22;;;22.70;99.90;;;;;;6186150;23;20153;-83
2022/06/09 06:24:15;;;;;;;8.23;6.13;;;22.90;99.90;;;;;;6159102;23;20189;-84
2022/06/09 06:26:41;;;;;;;9.38;6.63;;;23.00;99.90;;;;;;6159550;23;20168;-84
2022/06/09 06:29:12;;;;;;;10.00;6.55;;;23.10;99.90;;;;;;6184944;23;20160;-84
2022/06/09 06:31:38;;;;;;;9.73;6.38;;;23.20;99.90;;;;;;6185627;23;20195;-84
2022/06/09 06:34:03;;;;;;;6.47;5.50;;;23.30;99.90;;;;;;6158737;23;20168;-85
2022/06/09 06:36:29;;;;;;;9.32;5.80;;;23.50;99.90;;;;;;6184622;23;20207;-84
2022/06/09 06:38:55;;;;;;;12.63;6.90;;;23.50;99.90;;;;;;6184271;23;20165;-82
2022/06/09 06:41:22;;;;;;;8.20;5.97;;;23.60;99.90;;;;;;6158455;23;20211;-83
2022/06/09 06:43:48;;;;;;;7.93;5.93;;;23.70;99.90;;;;;;6185741;23;20199;-81
2022/06/09 06:46:18;;;;;;;8.10;5.82;;;23.80;99.90;;;;;;6159557;23;20295;-81
2022/06/09 06:48:45;;;;;;;7.38;5.07;;;24.00;99.90;;;;;;6186033;23;20212;-82
2022/06/09 06:51:11;;;;;;;6.75;5.07;;;24.10;99.90;;;;;;6185735;23;20569;-84
2022/06/09 06:53:40;;;;;;;5.75;4.53;;;24.20;99.90;;;;;;6185179;23;20167;-82
2022/06/09 06:56:06;;;;;;;7.05;4.90;;;24.40;99.90;;;;;;6159158;23;20165;-81
2022/06/09 06:58:32;;;;;;;5.05;4.20;;;24.40;99.90;;;;;;6159501;23;20203;-82
2022/06/09 07:01:00;;;;;;;6.03;4.25;;;24.50;99.90;;;;;;6135869;23;20586;-82
2022/06/09 07:03:26;;;;;;;5.32;3.97;;;24.70;99.90;;;;;;6160232;23;20153;-84
2022/06/09 07:05:52;;;;;;;5.75;4.38;;;24.80;99.90;;;;;;6185045;23;20153;-83
2022/06/09 07:08:18;;;;;;;6.43;4.68;;;24.90;99.90;;;;;;6136431;23;20224;-83
2022/06/09 07:14:05;;;;;;;5.05;3.78;;;25.10;99.90;;;;;;6186553;23;20198;-84
2022/06/09 07:16:30;;;;;;;4.82;4.10;;;25.20;99.90;;;;;;6187048;23;20161;-83
2022/06/09 07:18:56;;;;;;;4.25;3.60;;;25.30;99.90;;;;;;6160535;23;20161;-83
2022/06/09 07:21:22;;;;;;;5.20;3.72;;;25.30;99.90;;;;;;6136442;23;20161;-83
2022/06/09 07:23:48;;;;;;;6.25;3.83;;;;;;;;;;6159774;23;20192;-84
2022/06/09 07:26:13;;;;;;;3.55;3.10;;;25.60;99.90;;;;;;6136309;23;20171;-83
2022/06/09 07:28:39;;;;;;;3.88;3.05;;;25.70;99.90;;;;;;6160563;23;20165;-87
2022/06/09 07:31:05;;;;;;;3.67;3.15;;;25.70;99.90;;;;;;6186732;23;20163;-83
2022/06/09 07:33:35;;;;;;;3.45;2.60;;;25.80;99.90;;;;;;6160961;23;20180;-83
2022/06/09 07:36:01;;;;;;;4.03;2.95;;;25.90;99.90;;;;;;6186775;23;20148;-83
2022/06/09 07:38:27;;;;;;;4.70;3.53;;;25.90;99.90;;;;;;6186732;23;20179;-82
2022/06/09 07:40:54;;;;;;;5.90;3.38;;;26.00;99.90;;;;;;6186873;23;20244;-82
2022/06/09 07:43:19;;;;;;;4.68;3.42;;;25.90;99.90;;;;;;6187085;23;20195;-83
2022/06/09 07:45:47;;;;;;;4.85;2.80;;;25.80;99.90;;;;;;6186753;23;20193;-83
2022/06/09 07:48:13;;;;;;;4.82;3.03;;;25.80;99.90;;;;;;6186887;23;20616;-83
2022/06/09 07:50:40;;;;;;;4.88;2.90;;;25.80;99.90;;;;;;6160725;23;20156;-83
2022/06/09 07:53:06;;;;;;;3.67;2.63;;;25.80;99.90;;;;;;6186995;23;20176;-83
2022/06/09 07:55:33;;;;;;;2.88;2.40;;;25.80;99.90;;;;;;6186937;23;20149;-84
2022/06/09 07:57:59;;;;;;;4.20;2.60;;;26.00;99.90;;;;;;6187124;23;20195;-83
2022/06/09 08:01:04;;;;;;;6.35;2.78;;;26.10;99.90;;;;;;6160706;23;20157;-84
2022/06/09 08:03:29;;;;;;;2.67;2.25;;;26.20;99.90;;;;;;6186571;23;20180;-85
2022/06/09 08:05:55;;;;;;;5.18;3.65;;;;;;;;;;6187291;23;20235;-83
2022/06/09 08:08:59;;;;;;;4.18;2.88;;;26.40;99.90;;;;;;6187085;23;20196;-83
2022/06/09 08:11:32;;;;;;;4.00;2.83;;;26.60;99.90;;;;;;6160072;23;20156;-83
2022/06/09 08:15:02;;;;;;;3.42;2.55;;;26.60;99.90;;;;;;6183248;23;20192;-84
2022/06/09 08:17:28;;;;;;;3.15;2.15;;;26.80;99.90;;;;;;6130995;23;20173;-84
2022/06/09 08:19:53;;;;;;;2.42;1.95;;;26.70;99.90;;;;;;6130888;23;20648;-84
2022/06/09 08:22:44;;;;;;;4.18;2.78;;;26.70;99.90;;;;;;6156933;23;20233;-83
2022/06/09 08:28:41;;;;;;;2.55;2.20;;;27.10;99.90;;;;;;6156916;23;20152;-83
2022/06/09 08:31:07;;;;;;;2.92;2.20;;;27.20;98.20;;;;;;6156699;23;20241;-83
2022/06/09 08:33:33;;;;;;;3.08;2.25;;;27.30;96.00;;;;;;6105958;23;20558;-83
2022/06/09 08:35:58;;;;;;;3.13;2.00;;;27.30;92.70;;;;;;6157709;23;20161;-85
2022/06/09 08:38:24;;;;;;;2.90;2.20;;;27.30;91.20;;;;;;6131143;23;20600;-83
2022/06/09 08:41:13;;;;;;;6.90;2.13;;;27.30;90.60;;;;;;6131713;23;20236;-83
2022/06/09 08:47:14;;;;;;;2.80;2.08;;;27.50;90.90;;;;;;6156603;23;20527;-83
2022/06/09 08:56:26;;;;;;;4.80;1.92;;;27.80;88.80;;;;;;6125410;23;20623;-83
2022/06/09 08:59:17;;;;;;;2.33;2.00;;;27.80;88.20;;;;;;6156913;23;20177;-85
2022/06/09 09:01:47;;;;;;;1.70;1.60;;;27.80;90.20;;;;;;6156772;23;20153;-83
2022/06/09 09:04:16;;;;;;;3.53;2.33;;;27.80;87.60;;;;;;6156469;23;20188;-83
2022/06/09 09:06:49;;;;;;;2.17;1.63;;;27.80;85.20;;;;;;6156611;23;20153;-82
2022/06/09 09:09:24;;;;;;;4.13;2.17;;;27.90;83.80;;;;;;6155896;23;20153;-83
2022/06/09 09:12:10;;;;;;;2.15;1.95;;;27.90;84.90;;;;;;6130127;23;20153;-83
2022/06/09 09:14:45;;;;;;;3.20;2.20;;;27.90;80.70;;;;;;6155991;23;20199;-83
2022/06/09 09:17:39;;;;;;;3.60;1.95;;;28.00;80.60;;;;;;6129718;23;20552;-83
2022/06/09 09:20:28;;;;;;;2.35;2.00;;;28.20;80.40;;;;;;6156407;23;20168;-83
2022/06/09 09:23:00;;;;;;;3.13;2.28;;;28.40;79.90;;;;;;6156260;23;20157;-83
2022/06/09 09:25:37;;;;;;;3.30;2.17;;;28.40;81.80;;;;;;6156375;23;20215;-83
2022/06/09 09:28:06;;;;;;;3.50;2.05;;;28.40;83.10;;;;;;6156263;23;20138;-82
2022/06/09 09:30:48;;;;;;;2.78;2.08;;;28.50;79.20;;;;;;6156521;23;20231;-83
2022/06/09 09:33:17;;;;;;;4.75;2.53;;;28.50;78.80;;;;;;6130004;23;20490;-83
2022/06/09 09:35:45;;;;;;;2.38;2.08;;;28.70;78.60;;;;;;6130371;23;20164;-83
2022/06/09 09:38:16;;;;;;;3.13;2.10;;;28.70;79.30;;;;;;6129934;23;20164;-82
2022/06/09 09:40:48;;;;;;;2.58;2.38;;;28.80;77.70;;;;;;6156020;23;20478;-82
2022/06/09 09:43:19;;;;;;;2.65;2.20;;;28.90;76.20;;;;;;6129978;23;20160;-83
2022/06/09 09:45:53;;;;;;;4.47;1.95;;;29.00;77.20;;;;;;6156165;23;20152;-83
2022/06/09 09:48:21;;;;;;;4.40;1.80;;;29.20;76.60;;;;;;6156086;23;20148;-83
2022/06/09 09:50:49;;;;;;;2.50;2.08;;;29.10;77.20;;;;;;6129998;23;20161;-83
2022/06/09 09:53:17;;;;;;;9.38;3.05;;;29.00;72.40;;;;;;6156028;23;20153;-83
2022/06/09 09:55:59;;;;;;;2.58;2.00;;;29.10;72.60;;;;;;6155902;23;20153;-83
2022/06/09 09:58:31;;;;;;;3.33;1.80;;;29.20;71.00;;;;;;6156429;23;20148;-82
2022/06/09 10:01:25;;;;;;;2.35;1.95;;;29.20;71.00;;;;;;6155896;23;20149;-83
2022/06/09 10:09:54;;;;;;;4.72;2.80;;;29.50;71.10;;;;;;6156041;23;20226;-83
2022/06/09 10:12:23;;;;;;;2.38;2.17;;;29.50;72.50;;;;;;6156748;23;20192;-83
2022/06/09 10:14:51;;;;;;;3.33;2.47;;;29.60;73.20;;;;;;6156909;23;20153;-83
2022/06/09 10:17:32;;;;;;;2.72;2.03;;;29.70;73.90;;;;;;6185533;23;20145;-83
2022/06/09 10:20:29;;;;;;;4.30;1.98;;;29.90;70.80;;;;;;6185676;23;20148;-83
2022/06/09 10:23:16;;;;;;;1.98;1.77;;;29.90;66.40;;;;;;6136254;23;20171;-83
2022/06/09 10:25:59;;;;;;;2.28;2.08;;;29.90;66.00;;;;;;6185816;23;20145;-82
2022/06/09 10:28:43;;;;;;;4.82;2.15;;;29.80;70.10;;;;;;6185704;23;20160;-83
2022/06/09 10:31:31;;;;;;;2.35;1.80;;;29.90;66.90;;;;;;6185309;23;20141;-83
2022/06/09 10:34:19;;;;;;;4.43;2.42;;;29.80;69.70;;;;;;6185607;23;20167;-82
2022/06/09 10:37:09;;;;;;;2.63;2.17;;;29.90;68.00;;;;;;6187067;23;20171;-83
2022/06/09 10:39:50;;;;;;;3.65;1.98;;;29.90;68.50;;;;;;6187305;23;20216;-83
2022/06/09 10:42:24;;;;;;;1.80;1.70;;;29.90;68.10;;;;;;6187143;23;20180;-85
2022/06/09 10:44:54;;;;;;;1.98;1.55;;;29.90;68.00;;;;;;6161168;23;20187;-82
2022/06/09 10:56:33;;;;;;;1.90;1.70;;;30.40;64.90;;;;;;6186633;23;20195;-81
2022/06/09 10:59:38;;;;;;;2.45;1.80;;;30.40;66.10;;;;;;6160369;23;20155;-83
2022/06/09 11:02:21;;;;;;;2.10;1.90;;;30.40;65.00;;;;;;6180208;23;20531;-83
2022/06/09 11:04:49;;;;;;;2.40;1.67;;;30.40;64.50;;;;;;6186714;23;20180;-81
2022/06/09 11:07:14;;;;;;;4.60;2.13;;;30.50;66.80;;;;;;6186140;23;20159;-82
2022/06/09 11:10:25;;;;;;;2.58;1.80;;;30.60;65.70;;;;;;6186697;23;20569;-82
2022/06/09 11:13:11;;;;;;;4.80;2.05;;;30.50;62.70;;;;;;6066207;23;20159;-82
2022/06/09 11:16:01;;;;;;;2.72;1.92;;;30.40;62.20;;;;;;6178353;23;20229;-81
2022/06/09 11:18:47;;;;;;;2.13;1.83;;;30.30;64.10;;;;;;6186618;23;20144;-83
2022/06/09 11:21:38;;;;;;;2.67;1.95;;;30.40;63.90;;;;;;6186488;23;20148;-84
2022/06/09 11:24:09;;;;;;;2.78;2.10;;;30.40;62.20;;;;;;6186312;23;20176;-83
2022/06/09 11:26:54;;;;;;;2.42;2.00;;;30.40;65.70;;;;;;6160009;23;20235;-82
2022/06/09 11:29:37;;;;;;;2.67;1.90;;;30.50;65.80;;;;;;6185979;23;20164;-83
2022/06/09 11:32:29;;;;;;;3.33;1.88;;;30.40;65.30;;;;;;6160101;23;20179;-82
2022/06/09 11:35:15;;;;;;;3.67;2.35;;;30.50;65.20;;;;;;6159991;23;20165;-82
2022/06/09 11:37:49;;;;;;;2.40;2.08;;;30.70;64.10;;;;;;6159944;23;20156;-83
2022/06/09 11:40:55;;;;;;;3.10;2.22;;;30.70;64.80;;;;;;6184581;23;20231;-82
2022/06/09 11:43:58;;;;;;;2.08;1.85;;;30.50;64.50;;;;;;6153571;23;20160;-85
2022/06/09 11:46:34;;;;;;;2.45;1.67;;;30.40;65.80;;;;;;6185451;23;20148;-83
2022/06/09 11:49:04;;;;;;;1.83;1.73;;;30.70;65.00;;;;;;6185891;23;20602;-83
2022/06/09 11:51:33;;;;;;;2.70;1.90;;;30.40;63.20;;;;;;6186026;23;20172;-83
2022/06/09 11:54:03;;;;;;;2.53;1.90;;;30.60;65.10;;;;;;6186185;23;20168;-83
2022/06/09 11:56:43;;;;;;;2.00;1.80;;;30.40;65.30;;;;;;6185680;23;20477;-84
2022/06/09 11:59:12;;;;;;;1.95;1.75;;;30.30;62.40;;;;;;6186272;23;20224;-84
2022/06/09 12:01:37;;;;;;;2.00;1.77;;;30.30;63.50;;;;;;6185692;23;20163;-83
2022/06/09 12:04:12;;;;;;;1.60;1.50;;;30.30;64.30;;;;;;6186063;23;20185;-83
2022/06/09 12:06:37;;;;;;;3.47;1.70;;;30.50;64.60;;;;;;6185695;23;20279;-82
2022/06/09 12:09:27;;;;;;;2.60;2.10;;;30.70;65.00;;;;;;6185710;23;20523;-82
2022/06/09 12:12:01;;;;;;;1.70;1.50;;;30.80;62.90;;;;;;6185896;23;20141;-82
2022/06/09 12:14:34;;;;;;;3.28;2.40;;;30.80;62.30;;;;;;6184777;23;20144;-84
2022/06/09 12:17:29;;;;;;;2.30;1.90;;;30.80;64.10;;;;;;6185181;23;20197;-83
2022/06/09 12:19:59;;;;;;;2.60;2.10;;;30.60;62.20;;;;;;6185847;23;20184;-83
2022/06/09 12:22:39;;;;;;;2.58;1.98;;;30.60;61.40;;;;;;6185706;23;20159;-83
2022/06/09 12:25:08;;;;;;;2.28;2.05;;;30.70;64.00;;;;;;6159161;23;20509;-83
2022/06/09 12:27:37;;;;;;;2.63;1.88;;;30.70;63.20;;;;;;6158922;23;20162;-83
2022/06/09 12:30:02;;;;;;;3.65;2.33;;;30.60;63.80;;;;;;6185108;23;20156;-82
2022/06/09 12:32:44;;;;;;;3.45;1.67;;;30.40;61.40;;;;;;6184870;23;20152;-83
2022/06/09 12:35:45;;;;;;;4.03;2.00;;;30.10;60.90;;;;;;6184994;23;20457;-83
2022/06/09 12:38:34;;;;;;;7.22;1.92;;;29.90;65.20;;;;;;6179601;23;20171;-81
2022/06/09 12:41:31;;;;;;;3.90;1.63;;;30.00;62.20;;;;;;6185420;23;20592;-81
2022/06/09 12:44:15;;;;;;;1.80;1.65;;;29.80;63.10;;;;;;6166047;23;20215;-81
2022/06/09 12:46:42;;;;;;;4.05;1.73;;;30.10;63.50;;;;;;6159771;23;20487;-81
2022/06/09 12:49:17;;;;;;;3.75;1.92;;;29.90;62.70;;;;;;6188472;23;20576;-83
2022/06/09 12:51:42;;;;;;;2.38;2.00;;;29.80;60.70;;;;;;6188599;23;20159;-84
2022/06/09 12:54:18;;;;;;;2.25;2.05;;;29.90;61.90;;;;;;6187336;23;20534;-86
2022/06/09 12:56:54;;;;;;;3.08;2.05;;;30.10;66.10;;;;;;6188564;23;20151;-83
2022/06/09 12:59:27;;;;;;;2.88;2.03;;;30.30;62.00;;;;;;6161515;23;20213;-85
2022/06/09 13:02:13;;;;;;;35.33;3.60;;;30.40;62.40;;;;;;6188177;23;20184;-83
2022/06/09 13:04:51;;;;;;;3.55;2.10;;;30.40;61.40;;;;;;6164829;23;20204;-86
2022/06/09 13:07:26;;;;;;;4.03;2.72;;;30.40;61.20;;;;;;6185195;23;20614;-83
2022/06/09 13:10:18;;;;;;;3.20;1.80;;;30.30;61.20;;;;;;6186778;23;20155;-83
2022/06/09 13:12:52;;;;;;;2.63;2.25;;;30.30;62.80;;;;;;6185538;23;20152;-83
2022/06/09 13:15:45;;;;;;;2.65;2.17;;;30.20;61.20;;;;;;6159618;23;20205;-82
2022/06/09 13:18:22;;;;;;;2.30;1.88;;;30.40;61.20;;;;;;6147801;23;20164;-83
2022/06/09 13:20:55;;;;;;;1.77;1.65;;;30.40;61.20;;;;;;6185983;23;20383;-83
2022/06/09 13:23:21;;;;;;;4.15;2.10;;;30.40;60.30;;;;;;6185554;23;20600;-84
2022/06/09 13:25:48;;;;;;;2.15;1.98;;;30.40;60.40;;;;;;6185559;23;20153;-83
2022/06/09 13:28:30;;;;;;;2.33;1.83;;;30.50;63.20;;;;;;6185352;23;20160;-84
2022/06/09 13:30:57;;;;;;;3.40;2.05;;;30.20;62.00;;;;;;6159993;23;20161;-82
2022/06/09 13:33:34;;;;;;;3.13;2.28;;;30.00;61.20;;;;;;6159000;23;20156;-82
2022/06/09 13:36:28;;;;;;;2.38;2.15;;;30.00;62.30;;;;;;6159881;23;20156;-82
2022/06/09 13:38:55;;;;;;;2.22;1.75;;;29.90;61.90;;;;;;6145206;23;20215;-81
2022/06/09 13:41:37;;;;;;;2.38;2.03;;;29.90;62.70;;;;;;6193962;23;20148;-81
2022/06/09 13:44:12;;;;;;;2.85;2.00;;;29.80;63.60;;;;;;6193346;23;20259;-83
2022/06/09 13:46:59;;;;;;;3.15;2.15;;;29.70;63.70;;;;;;6194606;23;20140;-83
2022/06/09 13:49:29;;;;;;;3.65;2.40;;;29.50;63.30;;;;;;6192061;23;20144;-82